sensor_id;sensor_type;location;lat;lon;timestamp;temperature;humidity
9949;DHT22;5013;51.840;8.276;2023-02-23T00:00:29;9.30;1.00
9949;DHT22;5013;51.840;8.276;2023-02-23T00:02:58;9.30;1.00
9949;DHT22;5013;51.840;8.276;2023-02-23T00:05:27;9.30;1.00
9949;DHT22;5013;51.840;8.276;2023-02-23T00:07:53;9.30;1.00
9949;DHT22;5013;51.840;8.276;2023-02-23T00:10:19;9.30;1.00
9949;DHT22;5013;51.840;8.276;2023-02-23T00:12:46;9.20;1.00
9949;DHT22;5013;51.840;8.276;2023-02-23T00:15:14;9.30;1.00
9949;DHT22;5013;51.840;8.276;2023-02-23T00:17:40;9.30;1.00
9949;DHT22;5013;51.840;8.276;2023-02-23T00:20:09;9.30;1.00
9949;DHT22;5013;51.840;8.276;2023-02-23T00:22:39;9.40;1.00
9949;DHT22;5013;51.840;8.276;2023-02-23T00:25:06;9.40;1.00
9949;DHT22;5013;51.840;8.276;2023-02-23T00:27:32;9.40;99.90
9949;DHT22;5013;51.840;8.276;2023-02-23T00:29:58;9.40;1.00
9949;DHT22;5013;51.840;8.276;2023-02-23T00:32:23;9.40;1.00
9949;DHT22;5013;51.840;8.276;2023-02-23T00:34:49;9.40;99.90
9949;DHT22;5013;51.840;8.276;2023-02-23T00:37:15;9.40;99.90
9949;DHT22;5013;51.840;8.276;2023-02-23T00:39:41;9.40;1.00
9949;DHT22;5013;51.840;8.276;2023-02-23T00:42:07;9.40;99.90
9949;DHT22;5013;51.840;8.276;2023-02-23T00:44:33;9.40;1.00
9949;DHT22;5013;51.840;8.276;2023-02-23T00:46:59;9.40;1.00
9949;DHT22;5013;51.840;8.276;2023-02-23T00:49:25;9.30;1.00
9949;DHT22;5013;51.840;8.276;2023-02-23T00:51:51;9.40;1.00
9949;DHT22;5013;51.840;8.276;2023-02-23T00:54:18;9.40;1.00
9949;DHT22;5013;51.840;8.276;2023-02-23T00:56:45;9.40;1.00
9949;DHT22;5013;51.840;8.276;2023-02-23T00:59:12;9.40;1.00
9949;DHT22;5013;51.840;8.276;2023-02-23T01:01:39;9.40;1.00
9949;DHT22;5013;51.840;8.276;2023-02-23T01:04:06;9.40;1.00
9949;DHT22;5013;51.840;8.276;2023-02-23T01:06:32;9.40;1.00
9949;DHT22;5013;51.840;8.276;2023-02-23T01:08:59;9.40;1.00
9949;DHT22;5013;51.840;8.276;2023-02-23T01:11:29;9.40;1.00
9949;DHT22;5013;51.840;8.276;2023-02-23T01:13:57;9.50;1.00
9949;DHT22;5013;51.840;8.276;2023-02-23T01:16:27;9.40;1.00
9949;DHT22;5013;51.840;8.276;2023-02-23T01:18:55;9.40;1.00
9949;DHT22;5013;51.840;8.276;2023-02-23T01:21:23;9.40;1.00
9949;DHT22;5013;51.840;8.276;2023-02-23T01:23:51;9.30;1.00
9949;DHT22;5013;51.840;8.276;2023-02-23T01:26:24;9.30;1.00
9949;DHT22;5013;51.840;8.276;2023-02-23T01:28:58;9.30;1.00
9949;DHT22;5013;51.840;8.276;2023-02-23T01:31:25;9.30;1.00
9949;DHT22;5013;51.840;8.276;2023-02-23T01:33:55;9.30;1.00
9949;DHT22;5013;51.840;8.276;2023-02-23T01:36:21;9.30;1.00
9949;DHT22;5013;51.840;8.276;2023-02-23T01:38:48;9.30;1.00
9949;DHT22;5013;51.840;8.276;2023-02-23T01:41:14;9.30;1.00
9949;DHT22;5013;51.840;8.276;2023-02-23T01:43:59;9.30;1.00
9949;DHT22;5013;51.840;8.276;2023-02-23T01:46:39;9.30;1.00
9949;DHT22;5013;51.840;8.276;2023-02-23T01:49:09;9.20;1.00
9949;DHT22;5013;51.840;8.276;2023-02-23T01:51:42;9.20;1.00
9949;DHT22;5013;51.840;8.276;2023-02-23T01:54:15;9.20;1.00
9949;DHT22;5013;51.840;8.276;2023-02-23T01:56:44;9.20;1.00
9949;DHT22;5013;51.840;8.276;2023-02-23T01:59:13;9.20;1.00
9949;DHT22;5013;51.840;8.276;2023-02-23T02:01:39;9.20;1.00
9949;DHT22;5013;51.840;8.276;2023-02-23T02:04:07;9.20;1.00
9949;DHT22;5013;51.840;8.276;2023-02-23T02:06:35;9.20;8.50
9949;DHT22;5013;51.840;8.276;2023-02-23T02:09:04;9.20;40.00
9949;DHT22;5013;51.840;8.276;2023-02-23T02:11:33;9.30;36.90
9949;DHT22;5013;51.840;8.276;2023-02-23T02:14:09;9.40;4.90
9949;DHT22;5013;51.840;8.276;2023-02-23T02:38:50;9.30;1.00
9949;DHT22;5013;51.840;8.276;2023-02-23T02:44:21;9.20;1.00
9949;DHT22;5013;51.840;8.276;2023-02-23T02:46:56;9.20;1.00
9949;DHT22;5013;51.840;8.276;2023-02-23T02:49:31;9.20;1.00
9949;DHT22;5013;51.840;8.276;2023-02-23T02:52:52;9.20;22.20
9949;DHT22;5013;51.840;8.276;2023-02-23T02:55:04;9.20;53.70
9949;DHT22;5013;51.840;8.276;2023-02-23T02:57:34;9.20;33.20
9949;DHT22;5013;51.840;8.276;2023-02-23T03:00:00;9.20;48.70
9949;DHT22;5013;51.840;8.276;2023-02-23T03:02:44;9.20;65.40
9949;DHT22;5013;51.840;8.276;2023-02-23T03:05:49;9.10;81.00
9949;DHT22;5013;51.840;8.276;2023-02-23T03:09:02;9.10;99.80
9949;DHT22;5013;51.840;8.276;2023-02-23T03:12:23;9.20;99.90
9949;DHT22;5013;51.840;8.276;2023-02-23T03:18:15;9.20;99.90
9949;DHT22;5013;51.840;8.276;2023-02-23T03:21:23;9.20;99.90
9949;DHT22;5013;51.840;8.276;2023-02-23T03:30:20;9.20;99.90
9949;DHT22;5013;51.840;8.276;2023-02-23T03:33:12;9.20;99.90
9949;DHT22;5013;51.840;8.276;2023-02-23T03:36:13;9.20;99.90
9949;DHT22;5013;51.840;8.276;2023-02-23T03:39:51;9.10;99.90
9949;DHT22;5013;51.840;8.276;2023-02-23T03:42:18;9.10;99.90
9949;DHT22;5013;51.840;8.276;2023-02-23T03:45:10;9.10;99.90
9949;DHT22;5013;51.840;8.276;2023-02-23T03:47:57;9.10;99.90
9949;DHT22;5013;51.840;8.276;2023-02-23T03:50:48;9.20;99.90
9949;DHT22;5013;51.840;8.276;2023-02-23T03:54:05;9.10;99.90
9949;DHT22;5013;51.840;8.276;2023-02-23T03:56:52;9.10;99.90
9949;DHT22;5013;51.840;8.276;2023-02-23T03:59:54;9.00;99.90
9949;DHT22;5013;51.840;8.276;2023-02-23T04:02:42;9.10;99.90
9949;DHT22;5013;51.840;8.276;2023-02-23T04:05:27;9.00;99.90
9949;DHT22;5013;51.840;8.276;2023-02-23T04:08:14;9.10;99.90
9949;DHT22;5013;51.840;8.276;2023-02-23T04:11:13;9.10;99.90
9949;DHT22;5013;51.840;8.276;2023-02-23T04:14:02;9.20;99.90
9949;DHT22;5013;51.840;8.276;2023-02-23T04:16:29;9.20;99.90
9949;DHT22;5013;51.840;8.276;2023-02-23T04:18:56;9.20;99.90
9949;DHT22;5013;51.840;8.276;2023-02-23T04:21:22;9.20;99.90
9949;DHT22;5013;51.840;8.276;2023-02-23T04:23:48;9.20;99.90
9949;DHT22;5013;51.840;8.276;2023-02-23T04:26:13;9.20;99.90
9949;DHT22;5013;51.840;8.276;2023-02-23T04:28:39;9.30;99.90
9949;DHT22;5013;51.840;8.276;2023-02-23T04:31:04;9.30;99.90
9949;DHT22;5013;51.840;8.276;2023-02-23T04:33:30;9.30;99.90
9949;DHT22;5013;51.840;8.276;2023-02-23T04:35:55;9.30;99.90
9949;DHT22;5013;51.840;8.276;2023-02-23T04:38:22;9.30;99.90
9949;DHT22;5013;51.840;8.276;2023-02-23T04:40:48;9.40;99.90
9949;DHT22;5013;51.840;8.276;2023-02-23T04:43:14;9.30;99.90
9949;DHT22;5013;51.840;8.276;2023-02-23T04:45:40;9.40;99.90
9949;DHT22;5013;51.840;8.276;2023-02-23T04:48:06;9.30;99.90
9949;DHT22;5013;51.840;8.276;2023-02-23T04:50:32;9.30;99.90
9949;DHT22;5013;51.840;8.276;2023-02-23T04:52:58;9.30;99.90
9949;DHT22;5013;51.840;8.276;2023-02-23T04:55:24;9.30;99.90
9949;DHT22;5013;51.840;8.276;2023-02-23T04:57:51;9.30;99.90
9949;DHT22;5013;51.840;8.276;2023-02-23T05:00:20;9.20;99.90
9949;DHT22;5013;51.840;8.276;2023-02-23T05:02:46;9.30;99.90
9949;DHT22;5013;51.840;8.276;2023-02-23T05:05:13;9.20;99.90
9949;DHT22;5013;51.840;8.276;2023-02-23T05:07:38;9.20;99.90
9949;DHT22;5013;51.840;8.276;2023-02-23T05:10:05;9.10;99.90
9949;DHT22;5013;51.840;8.276;2023-02-23T05:12:31;9.20;99.90
9949;DHT22;5013;51.840;8.276;2023-02-23T05:14:57;9.20;99.90
9949;DHT22;5013;51.840;8.276;2023-02-23T05:17:22;9.20;99.90
9949;DHT22;5013;51.840;8.276;2023-02-23T05:19:48;9.20;99.90
9949;DHT22;5013;51.840;8.276;2023-02-23T05:22:14;9.20;99.90
9949;DHT22;5013;51.840;8.276;2023-02-23T05:24:39;9.20;99.90
9949;DHT22;5013;51.840;8.276;2023-02-23T05:27:09;9.20;99.90
9949;DHT22;5013;51.840;8.276;2023-02-23T05:29:35;9.20;99.90
9949;DHT22;5013;51.840;8.276;2023-02-23T05:32:00;9.20;99.90
9949;DHT22;5013;51.840;8.276;2023-02-23T05:34:26;9.20;99.90
9949;DHT22;5013;51.840;8.276;2023-02-23T05:36:52;9.20;99.90
9949;DHT22;5013;51.840;8.276;2023-02-23T05:39:19;9.20;99.90
9949;DHT22;5013;51.840;8.276;2023-02-23T05:41:44;9.20;99.90
9949;DHT22;5013;51.840;8.276;2023-02-23T05:44:10;9.30;99.90
9949;DHT22;5013;51.840;8.276;2023-02-23T05:46:35;9.20;99.90
9949;DHT22;5013;51.840;8.276;2023-02-23T05:49:01;9.20;99.90
9949;DHT22;5013;51.840;8.276;2023-02-23T05:51:29;9.20;99.90
9949;DHT22;5013;51.840;8.276;2023-02-23T05:53:55;9.30;99.90
9949;DHT22;5013;51.840;8.276;2023-02-23T05:56:21;9.20;99.90
9949;DHT22;5013;51.840;8.276;2023-02-23T05:58:48;9.30;99.90
9949;DHT22;5013;51.840;8.276;2023-02-23T06:01:14;9.30;99.90
9949;DHT22;5013;51.840;8.276;2023-02-23T06:03:39;9.30;99.90
9949;DHT22;5013;51.840;8.276;2023-02-23T06:06:05;9.20;99.90
9949;DHT22;5013;51.840;8.276;2023-02-23T06:08:31;9.20;99.90
9949;DHT22;5013;51.840;8.276;2023-02-23T06:10:57;9.20;99.90
9949;DHT22;5013;51.840;8.276;2023-02-23T06:13:23;9.30;99.90
9949;DHT22;5013;51.840;8.276;2023-02-23T06:15:48;9.30;99.90
9949;DHT22;5013;51.840;8.276;2023-02-23T06:18:14;9.20;99.90
9949;DHT22;5013;51.840;8.276;2023-02-23T06:20:40;9.20;99.90
9949;DHT22;5013;51.840;8.276;2023-02-23T06:23:05;9.20;99.90
9949;DHT22;5013;51.840;8.276;2023-02-23T06:25:31;9.30;99.90
9949;DHT22;5013;51.840;8.276;2023-02-23T06:27:57;9.20;99.90
9949;DHT22;5013;51.840;8.276;2023-02-23T06:30:22;9.20;99.90
9949;DHT22;5013;51.840;8.276;2023-02-23T06:32:48;9.20;99.90
9949;DHT22;5013;51.840;8.276;2023-02-23T06:35:14;9.20;99.90
9949;DHT22;5013;51.840;8.276;2023-02-23T06:37:39;9.20;99.90
9949;DHT22;5013;51.840;8.276;2023-02-23T06:40:05;9.20;99.90
9949;DHT22;5013;51.840;8.276;2023-02-23T06:42:31;9.20;99.90
9949;DHT22;5013;51.840;8.276;2023-02-23T06:44:57;9.20;99.90
9949;DHT22;5013;51.840;8.276;2023-02-23T06:47:22;9.20;99.90
9949;DHT22;5013;51.840;8.276;2023-02-23T06:49:48;9.20;99.90
9949;DHT22;5013;51.840;8.276;2023-02-23T06:52:14;9.20;99.90
9949;DHT22;5013;51.840;8.276;2023-02-23T06:54:40;9.10;99.90
9949;DHT22;5013;51.840;8.276;2023-02-23T06:57:07;9.10;99.90
9949;DHT22;5013;51.840;8.276;2023-02-23T06:59:32;9.10;99.90
9949;DHT22;5013;51.840;8.276;2023-02-23T07:01:58;9.20;99.90
9949;DHT22;5013;51.840;8.276;2023-02-23T07:04:24;9.20;99.90
9949;DHT22;5013;51.840;8.276;2023-02-23T07:06:50;9.20;99.90
9949;DHT22;5013;51.840;8.276;2023-02-23T07:09:16;9.20;99.90
9949;DHT22;5013;51.840;8.276;2023-02-23T07:11:41;9.20;99.90
9949;DHT22;5013;51.840;8.276;2023-02-23T07:14:10;9.20;99.90
9949;DHT22;5013;51.840;8.276;2023-02-23T07:16:36;9.10;99.90
9949;DHT22;5013;51.840;8.276;2023-02-23T07:19:02;9.20;99.90
9949;DHT22;5013;51.840;8.276;2023-02-23T07:21:28;9.20;99.90
9949;DHT22;5013;51.840;8.276;2023-02-23T07:23:56;9.20;99.90
9949;DHT22;5013;51.840;8.276;2023-02-23T07:26:22;9.20;99.90
9949;DHT22;5013;51.840;8.276;2023-02-23T07:28:47;9.20;99.90
9949;DHT22;5013;51.840;8.276;2023-02-23T07:31:13;9.20;99.90
9949;DHT22;5013;51.840;8.276;2023-02-23T07:33:38;9.20;99.90
9949;DHT22;5013;51.840;8.276;2023-02-23T07:36:04;9.20;99.90
9949;DHT22;5013;51.840;8.276;2023-02-23T07:38:30;9.20;99.90
9949;DHT22;5013;51.840;8.276;2023-02-23T07:40:55;9.10;99.90
9949;DHT22;5013;51.840;8.276;2023-02-23T07:43:21;9.20;99.90
9949;DHT22;5013;51.840;8.276;2023-02-23T07:45:47;9.20;99.90
9949;DHT22;5013;51.840;8.276;2023-02-23T07:48:13;9.20;99.90
9949;DHT22;5013;51.840;8.276;2023-02-23T07:50:40;9.10;99.90
9949;DHT22;5013;51.840;8.276;2023-02-23T07:53:06;9.10;99.90
9949;DHT22;5013;51.840;8.276;2023-02-23T07:55:31;9.10;99.90
9949;DHT22;5013;51.840;8.276;2023-02-23T07:57:57;9.10;99.90
9949;DHT22;5013;51.840;8.276;2023-02-23T08:00:23;9.20;99.90
9949;DHT22;5013;51.840;8.276;2023-02-23T08:02:50;9.20;99.90
9949;DHT22;5013;51.840;8.276;2023-02-23T08:05:18;9.30;99.90
9949;DHT22;5013;51.840;8.276;2023-02-23T08:07:43;9.30;99.90
9949;DHT22;5013;51.840;8.276;2023-02-23T08:10:10;9.30;99.90
9949;DHT22;5013;51.840;8.276;2023-02-23T08:12:36;9.30;99.90
9949;DHT22;5013;51.840;8.276;2023-02-23T08:15:02;9.30;99.90
9949;DHT22;5013;51.840;8.276;2023-02-23T08:17:30;9.30;99.90
9949;DHT22;5013;51.840;8.276;2023-02-23T08:19:55;9.20;99.90
9949;DHT22;5013;51.840;8.276;2023-02-23T08:22:21;9.30;99.90
9949;DHT22;5013;51.840;8.276;2023-02-23T08:24:47;9.20;99.90
9949;DHT22;5013;51.840;8.276;2023-02-23T08:27:12;9.30;99.90
9949;DHT22;5013;51.840;8.276;2023-02-23T08:29:38;9.40;99.90
9949;DHT22;5013;51.840;8.276;2023-02-23T08:32:04;9.40;99.90
9949;DHT22;5013;51.840;8.276;2023-02-23T08:34:30;9.30;99.90
9949;DHT22;5013;51.840;8.276;2023-02-23T08:36:55;9.30;99.90
9949;DHT22;5013;51.840;8.276;2023-02-23T08:39:21;9.30;99.90
9949;DHT22;5013;51.840;8.276;2023-02-23T08:41:47;9.30;99.90
9949;DHT22;5013;51.840;8.276;2023-02-23T08:44:13;9.30;99.90
9949;DHT22;5013;51.840;8.276;2023-02-23T08:46:38;9.30;99.90
9949;DHT22;5013;51.840;8.276;2023-02-23T08:49:04;9.30;99.90
9949;DHT22;5013;51.840;8.276;2023-02-23T08:51:30;9.30;99.90
9949;DHT22;5013;51.840;8.276;2023-02-23T08:53:56;9.30;99.90
9949;DHT22;5013;51.840;8.276;2023-02-23T08:56:22;9.40;99.90
9949;DHT22;5013;51.840;8.276;2023-02-23T08:58:49;9.30;99.90
9949;DHT22;5013;51.840;8.276;2023-02-23T09:01:18;9.40;99.90
9949;DHT22;5013;51.840;8.276;2023-02-23T09:03:44;9.30;99.90
9949;DHT22;5013;51.840;8.276;2023-02-23T09:06:13;9.20;99.90
9949;DHT22;5013;51.840;8.276;2023-02-23T09:08:39;9.30;99.90
9949;DHT22;5013;51.840;8.276;2023-02-23T09:11:05;9.20;99.90
9949;DHT22;5013;51.840;8.276;2023-02-23T09:13:30;9.20;99.90
9949;DHT22;5013;51.840;8.276;2023-02-23T09:15:56;9.20;99.90
9949;DHT22;5013;51.840;8.276;2023-02-23T09:18:22;9.30;99.90
9949;DHT22;5013;51.840;8.276;2023-02-23T09:20:49;9.20;99.90
9949;DHT22;5013;51.840;8.276;2023-02-23T09:23:15;9.20;99.90
9949;DHT22;5013;51.840;8.276;2023-02-23T09:25:44;9.20;99.90
9949;DHT22;5013;51.840;8.276;2023-02-23T09:28:14;9.10;99.90
9949;DHT22;5013;51.840;8.276;2023-02-23T09:30:42;9.20;99.90
9949;DHT22;5013;51.840;8.276;2023-02-23T09:33:09;9.10;99.90
9949;DHT22;5013;51.840;8.276;2023-02-23T09:35:35;9.10;99.90
9949;DHT22;5013;51.840;8.276;2023-02-23T09:38:02;9.00;99.90
9949;DHT22;5013;51.840;8.276;2023-02-23T09:40:44;9.00;99.90
9949;DHT22;5013;51.840;8.276;2023-02-23T09:45:42;9.00;99.90
9949;DHT22;5013;51.840;8.276;2023-02-23T09:48:15;9.00;99.90
9949;DHT22;5013;51.840;8.276;2023-02-23T09:50:48;9.00;99.90
9949;DHT22;5013;51.840;8.276;2023-02-23T09:53:36;9.00;99.90
9949;DHT22;5013;51.840;8.276;2023-02-23T09:56:01;9.00;99.90
9949;DHT22;5013;51.840;8.276;2023-02-23T09:58:31;9.10;99.90
9949;DHT22;5013;51.840;8.276;2023-02-23T10:03:30;9.10;99.90
9949;DHT22;5013;51.840;8.276;2023-02-23T10:06:02;9.20;99.90
9949;DHT22;5013;51.840;8.276;2023-02-23T10:11:43;9.20;99.90
9949;DHT22;5013;51.840;8.276;2023-02-23T10:14:46;9.30;99.90
9949;DHT22;5013;51.840;8.276;2023-02-23T10:22:26;9.30;99.90
9949;DHT22;5013;51.840;8.276;2023-02-23T10:25:13;9.30;99.90
9949;DHT22;5013;51.840;8.276;2023-02-23T10:27:44;9.30;99.90
9949;DHT22;5013;51.840;8.276;2023-02-23T10:30:23;9.40;99.90
9949;DHT22;5013;51.840;8.276;2023-02-23T10:32:53;9.30;99.90
9949;DHT22;5013;51.840;8.276;2023-02-23T10:35:21;9.30;99.90
9949;DHT22;5013;51.840;8.276;2023-02-23T10:37:47;9.40;99.90
9949;DHT22;5013;51.840;8.276;2023-02-23T10:40:17;9.30;99.90
9949;DHT22;5013;51.840;8.276;2023-02-23T10:42:45;9.40;99.90
9949;DHT22;5013;51.840;8.276;2023-02-23T10:45:25;9.50;99.90
9949;DHT22;5013;51.840;8.276;2023-02-23T10:48:06;9.30;99.90
9949;DHT22;5013;51.840;8.276;2023-02-23T10:50:35;9.40;99.90
9949;DHT22;5013;51.840;8.276;2023-02-23T10:53:16;9.30;99.90
9949;DHT22;5013;51.840;8.276;2023-02-23T10:55:43;9.30;99.90
9949;DHT22;5013;51.840;8.276;2023-02-23T10:58:19;9.40;99.90
9949;DHT22;5013;51.840;8.276;2023-02-23T11:01:05;9.40;99.90
9949;DHT22;5013;51.840;8.276;2023-02-23T11:03:48;9.40;99.90
9949;DHT22;5013;51.840;8.276;2023-02-23T11:06:31;9.40;99.90
9949;DHT22;5013;51.840;8.276;2023-02-23T11:08:57;9.40;99.90
9949;DHT22;5013;51.840;8.276;2023-02-23T11:11:25;9.40;99.90
9949;DHT22;5013;51.840;8.276;2023-02-23T11:13:54;9.50;99.90
9949;DHT22;5013;51.840;8.276;2023-02-23T11:19:02;9.50;99.90
9949;DHT22;5013;51.840;8.276;2023-02-23T11:21:31;9.60;99.90
9949;DHT22;5013;51.840;8.276;2023-02-23T11:24:27;9.60;99.90
9949;DHT22;5013;51.840;8.276;2023-02-23T11:26:58;9.60;99.90
9949;DHT22;5013;51.840;8.276;2023-02-23T11:32:26;9.50;99.90
9949;DHT22;5013;51.840;8.276;2023-02-23T11:35:26;9.60;99.90
9949;DHT22;5013;51.840;8.276;2023-02-23T11:37:53;9.60;99.90
9949;DHT22;5013;51.840;8.276;2023-02-23T11:40:31;9.60;99.90
9949;DHT22;5013;51.840;8.276;2023-02-23T11:45:37;9.70;99.90
9949;DHT22;5013;51.840;8.276;2023-02-23T11:48:03;9.80;99.90
9949;DHT22;5013;51.840;8.276;2023-02-23T11:50:32;9.90;99.90
9949;DHT22;5013;51.840;8.276;2023-02-23T11:53:17;9.90;99.90
9949;DHT22;5013;51.840;8.276;2023-02-23T11:55:48;10.00;99.90
9949;DHT22;5013;51.840;8.276;2023-02-23T11:58:35;9.90;82.30
9949;DHT22;5013;51.840;8.276;2023-02-23T12:01:15;9.80;90.20
9949;DHT22;5013;51.840;8.276;2023-02-23T12:06:12;9.80;99.90
9949;DHT22;5013;51.840;8.276;2023-02-23T12:08:52;9.80;99.90
9949;DHT22;5013;51.840;8.276;2023-02-23T12:11:24;9.80;99.90
9949;DHT22;5013;51.840;8.276;2023-02-23T12:14:06;9.80;99.90
9949;DHT22;5013;51.840;8.276;2023-02-23T12:16:43;9.80;99.90
9949;DHT22;5013;51.840;8.276;2023-02-23T12:19:29;9.60;99.90
9949;DHT22;5013;51.840;8.276;2023-02-23T12:21:59;9.70;99.90
9949;DHT22;5013;51.840;8.276;2023-02-23T12:27:21;9.70;99.90
9949;DHT22;5013;51.840;8.276;2023-02-23T12:30:11;9.70;99.90
9949;DHT22;5013;51.840;8.276;2023-02-23T12:32:54;9.80;99.90
9949;DHT22;5013;51.840;8.276;2023-02-23T12:35:25;9.60;73.80
9949;DHT22;5013;51.840;8.276;2023-02-23T12:38:01;9.60;94.80
9949;DHT22;5013;51.840;8.276;2023-02-23T12:40:32;9.70;99.90
9949;DHT22;5013;51.840;8.276;2023-02-23T12:45:42;9.60;99.90
9949;DHT22;5013;51.840;8.276;2023-02-23T12:48:24;9.50;91.00
9949;DHT22;5013;51.840;8.276;2023-02-23T12:50:55;9.40;99.90
9949;DHT22;5013;51.840;8.276;2023-02-23T12:53:38;9.40;99.90
9949;DHT22;5013;51.840;8.276;2023-02-23T12:59:24;9.30;99.90
9949;DHT22;5013;51.840;8.276;2023-02-23T13:01:57;9.30;99.90
9949;DHT22;5013;51.840;8.276;2023-02-23T13:07:14;9.20;99.90
9949;DHT22;5013;51.840;8.276;2023-02-23T13:10:06;9.20;99.90
9949;DHT22;5013;51.840;8.276;2023-02-23T13:12:47;9.20;99.90
9949;DHT22;5013;51.840;8.276;2023-02-23T13:23:30;9.10;99.90
9949;DHT22;5013;51.840;8.276;2023-02-23T13:26:15;9.00;99.90
9949;DHT22;5013;51.840;8.276;2023-02-23T13:31:21;8.90;99.90
9949;DHT22;5013;51.840;8.276;2023-02-23T13:33:48;8.90;99.90
9949;DHT22;5013;51.840;8.276;2023-02-23T13:36:14;8.80;99.90
9949;DHT22;5013;51.840;8.276;2023-02-23T13:44:28;8.80;99.90
9949;DHT22;5013;51.840;8.276;2023-02-23T13:47:09;8.80;99.90
9949;DHT22;5013;51.840;8.276;2023-02-23T13:52:22;8.70;99.90
9949;DHT22;5013;51.840;8.276;2023-02-23T13:54:53;8.60;99.90
9949;DHT22;5013;51.840;8.276;2023-02-23T13:57:21;8.60;99.90
9949;DHT22;5013;51.840;8.276;2023-02-23T13:59:48;8.50;99.90
9949;DHT22;5013;51.840;8.276;2023-02-23T14:05:06;8.40;99.90
9949;DHT22;5013;51.840;8.276;2023-02-23T14:07:42;8.40;99.90
9949;DHT22;5013;51.840;8.276;2023-02-23T14:10:26;8.40;99.90
9949;DHT22;5013;51.840;8.276;2023-02-23T14:13:23;8.40;99.90
9949;DHT22;5013;51.840;8.276;2023-02-23T14:19:58;8.30;99.90
9949;DHT22;5013;51.840;8.276;2023-02-23T14:21:48;8.30;99.90
9949;DHT22;5013;51.840;8.276;2023-02-23T14:24:24;8.30;99.90
9949;DHT22;5013;51.840;8.276;2023-02-23T14:29:30;8.20;99.90
9949;DHT22;5013;51.840;8.276;2023-02-23T14:35:00;8.20;99.90
9949;DHT22;5013;51.840;8.276;2023-02-23T14:37:35;8.30;99.90
9949;DHT22;5013;51.840;8.276;2023-02-23T14:40:38;8.20;99.90
9949;DHT22;5013;51.840;8.276;2023-02-23T14:43:03;8.20;99.90
9949;DHT22;5013;51.840;8.276;2023-02-23T14:45:53;8.20;99.90
9949;DHT22;5013;51.840;8.276;2023-02-23T14:48:19;8.20;99.90
9949;DHT22;5013;51.840;8.276;2023-02-23T14:50:48;8.40;99.90
9949;DHT22;5013;51.840;8.276;2023-02-23T14:53:19;8.10;99.90
9949;DHT22;5013;51.840;8.276;2023-02-23T14:55:46;8.10;99.90
9949;DHT22;5013;51.840;8.276;2023-02-23T14:58:25;8.10;99.90
9949;DHT22;5013;51.840;8.276;2023-02-23T15:00:50;8.10;99.90
9949;DHT22;5013;51.840;8.276;2023-02-23T15:03:16;8.00;99.90
9949;DHT22;5013;51.840;8.276;2023-02-23T15:05:48;7.90;99.90
9949;DHT22;5013;51.840;8.276;2023-02-23T15:08:20;7.90;99.90
9949;DHT22;5013;51.840;8.276;2023-02-23T15:10:49;7.90;99.90
9949;DHT22;5013;51.840;8.276;2023-02-23T15:13:32;8.00;99.90
9949;DHT22;5013;51.840;8.276;2023-02-23T15:16:04;7.90;99.90
9949;DHT22;5013;51.840;8.276;2023-02-23T15:18:35;7.80;99.90
9949;DHT22;5013;51.840;8.276;2023-02-23T15:21:19;7.80;99.90
9949;DHT22;5013;51.840;8.276;2023-02-23T15:24:26;7.90;99.90
9949;DHT22;5013;51.840;8.276;2023-02-23T15:26:53;7.90;99.90
9949;DHT22;5013;51.840;8.276;2023-02-23T15:29:28;7.90;99.90
9949;DHT22;5013;51.840;8.276;2023-02-23T15:31:54;7.90;99.90
9949;DHT22;5013;51.840;8.276;2023-02-23T15:34:24;7.90;99.90
9949;DHT22;5013;51.840;8.276;2023-02-23T15:36:57;7.90;99.90
9949;DHT22;5013;51.840;8.276;2023-02-23T15:39:47;7.90;99.90
9949;DHT22;5013;51.840;8.276;2023-02-23T15:42:30;7.90;99.90
9949;DHT22;5013;51.840;8.276;2023-02-23T15:45:03;7.80;99.90
9949;DHT22;5013;51.840;8.276;2023-02-23T15:47:34;7.80;99.90
9949;DHT22;5013;51.840;8.276;2023-02-23T15:50:21;7.90;99.90
9949;DHT22;5013;51.840;8.276;2023-02-23T15:52:52;7.80;99.90
9949;DHT22;5013;51.840;8.276;2023-02-23T15:55:35;7.80;99.90
9949;DHT22;5013;51.840;8.276;2023-02-23T15:58:21;7.90;99.90
9949;DHT22;5013;51.840;8.276;2023-02-23T16:00:59;7.90;99.90
9949;DHT22;5013;51.840;8.276;2023-02-23T16:03:32;7.80;99.90
9949;DHT22;5013;51.840;8.276;2023-02-23T16:06:02;7.80;99.90
9949;DHT22;5013;51.840;8.276;2023-02-23T16:08:28;7.70;99.90
9949;DHT22;5013;51.840;8.276;2023-02-23T16:11:06;7.70;99.90
9949;DHT22;5013;51.840;8.276;2023-02-23T16:13:36;7.70;99.90
9949;DHT22;5013;51.840;8.276;2023-02-23T16:16:04;7.60;99.90
9949;DHT22;5013;51.840;8.276;2023-02-23T16:18:38;7.60;99.90
9949;DHT22;5013;51.840;8.276;2023-02-23T16:21:05;7.60;99.90
9949;DHT22;5013;51.840;8.276;2023-02-23T16:23:39;7.50;99.90
9949;DHT22;5013;51.840;8.276;2023-02-23T16:26:08;7.50;99.90
9949;DHT22;5013;51.840;8.276;2023-02-23T16:28:39;7.50;99.90
9949;DHT22;5013;51.840;8.276;2023-02-23T16:31:07;7.50;99.90
9949;DHT22;5013;51.840;8.276;2023-02-23T16:33:49;7.50;99.90
9949;DHT22;5013;51.840;8.276;2023-02-23T16:36:21;7.60;99.90
9949;DHT22;5013;51.840;8.276;2023-02-23T16:39:01;7.60;99.90
9949;DHT22;5013;51.840;8.276;2023-02-23T16:41:32;7.60;99.90
9949;DHT22;5013;51.840;8.276;2023-02-23T16:44:00;7.50;99.90
9949;DHT22;5013;51.840;8.276;2023-02-23T16:46:29;7.50;99.90
9949;DHT22;5013;51.840;8.276;2023-02-23T16:48:56;7.60;99.90
9949;DHT22;5013;51.840;8.276;2023-02-23T16:51:30;7.50;99.90
9949;DHT22;5013;51.840;8.276;2023-02-23T16:53:58;7.50;99.90
9949;DHT22;5013;51.840;8.276;2023-02-23T16:56:24;7.60;99.90
9949;DHT22;5013;51.840;8.276;2023-02-23T16:58:57;7.60;99.90
9949;DHT22;5013;51.840;8.276;2023-02-23T17:01:22;7.60;99.90
9949;DHT22;5013;51.840;8.276;2023-02-23T17:03:48;7.60;99.90
9949;DHT22;5013;51.840;8.276;2023-02-23T17:06:14;7.60;99.90
9949;DHT22;5013;51.840;8.276;2023-02-23T17:08:40;7.50;99.90
9949;DHT22;5013;51.840;8.276;2023-02-23T17:11:06;7.60;99.90
9949;DHT22;5013;51.840;8.276;2023-02-23T17:13:32;7.50;99.90
9949;DHT22;5013;51.840;8.276;2023-02-23T17:16:00;7.50;99.90
9949;DHT22;5013;51.840;8.276;2023-02-23T17:18:30;7.50;99.90
9949;DHT22;5013;51.840;8.276;2023-02-23T17:20:58;7.50;99.90
9949;DHT22;5013;51.840;8.276;2023-02-23T17:23:26;7.50;99.90
9949;DHT22;5013;51.840;8.276;2023-02-23T17:25:53;7.50;99.90
9949;DHT22;5013;51.840;8.276;2023-02-23T17:28:20;7.50;99.90
9949;DHT22;5013;51.840;8.276;2023-02-23T17:30:46;7.60;99.90
9949;DHT22;5013;51.840;8.276;2023-02-23T17:33:12;7.50;99.90
9949;DHT22;5013;51.840;8.276;2023-02-23T17:35:38;7.50;99.90
9949;DHT22;5013;51.840;8.276;2023-02-23T17:38:04;7.50;99.90
9949;DHT22;5013;51.840;8.276;2023-02-23T17:40:30;7.50;99.90
9949;DHT22;5013;51.840;8.276;2023-02-23T17:43:01;7.50;99.90
9949;DHT22;5013;51.840;8.276;2023-02-23T17:45:28;7.50;99.90
9949;DHT22;5013;51.840;8.276;2023-02-23T17:47:54;7.50;99.90
9949;DHT22;5013;51.840;8.276;2023-02-23T17:50:20;7.50;99.90
9949;DHT22;5013;51.840;8.276;2023-02-23T17:52:49;7.50;99.90
9949;DHT22;5013;51.840;8.276;2023-02-23T17:55:16;7.40;99.90
9949;DHT22;5013;51.840;8.276;2023-02-23T17:57:42;7.40;99.90
9949;DHT22;5013;51.840;8.276;2023-02-23T18:00:12;7.50;99.90
9949;DHT22;5013;51.840;8.276;2023-02-23T18:02:40;7.50;99.90
9949;DHT22;5013;51.840;8.276;2023-02-23T18:05:07;7.40;99.90
9949;DHT22;5013;51.840;8.276;2023-02-23T18:07:33;7.40;99.90
9949;DHT22;5013;51.840;8.276;2023-02-23T18:09:59;7.40;99.90
9949;DHT22;5013;51.840;8.276;2023-02-23T18:12:25;7.40;99.90
9949;DHT22;5013;51.840;8.276;2023-02-23T18:14:50;7.40;99.90
9949;DHT22;5013;51.840;8.276;2023-02-23T18:17:16;7.40;99.90
9949;DHT22;5013;51.840;8.276;2023-02-23T18:19:42;7.50;99.90
9949;DHT22;5013;51.840;8.276;2023-02-23T18:22:08;7.40;99.90
9949;DHT22;5013;51.840;8.276;2023-02-23T18:24:34;7.40;99.90
9949;DHT22;5013;51.840;8.276;2023-02-23T18:27:00;7.40;99.90